Main page
METAR-TAF:

METAR-TAF

Airports :

Andorra–La Seu d'Urgell Airport

La Seu d'Urgell, Spain

latitude: 42-20-29N, longitude: 001-24-17E, elevation: 802 m

METAR: missing

Time: 02:29 (01:29 UTC)

Forecast

The report was made 11 hours and 29 minutes ago, at 14:00 UTC
Forecast valid from 01 at 15 UTC to 02 at 15 UTC
Wind 4 kt from variable directions
Visibility 10 km or more
Few clouds at a height of 2000 ft
Temporary
from 01 at 15 UTC to 01 at 18 UTC
Wind 10 kt from the South/Southwest

TAF: LESU 011400Z 0115/0215 VRB04KT 9999 FEW020 TX17/0214Z TN02/0206Z TEMPO 0115/0118 20010KT

Weather observations and forecasts of more than 4000 airports (METAR and TAF reports).

The available stations are represented by yellow and red dots on the map.

Hover mouse over dot to see the name of the station.

Then click to see weather observations and forecasts.

To change the map : click on the green buttons with a black cross to zoom in, on the green button with a dash to zoom out, or on the green arrows for adjacent maps.


METAR-TAF: